createdAt,value
2018-01-30T00:00:05.883Z,82.20
2018-01-30T00:01:09.515Z,81.00
2018-01-30T00:02:06.093Z,81.10
2018-01-30T00:03:10.002Z,80.60
2018-01-30T00:04:06.237Z,80.60
2018-01-30T00:05:05.903Z,80.60
2018-01-30T00:06:05.831Z,80.30
2018-01-30T00:07:09.255Z,79.10
2018-01-30T00:08:11.195Z,79.10
2018-01-30T00:09:05.789Z,79.20
2018-01-30T00:10:08.357Z,78.40
2018-01-30T00:11:09.636Z,78.30
2018-01-30T00:12:09.995Z,78.50
2018-01-30T00:13:06.288Z,78.50
2018-01-30T00:14:06.273Z,78.60
2018-01-30T00:15:05.843Z,78.40
2018-01-30T00:16:06.226Z,78.40
2018-01-30T00:17:05.688Z,78.60
2018-01-30T00:18:10.664Z,78.90
2018-01-30T00:19:11.165Z,79.10
2018-01-30T00:20:11.173Z,79.10
2018-01-30T00:21:05.955Z,79.10
2018-01-30T00:22:06.031Z,79.00
2018-01-30T00:23:09.671Z,79.30
2018-01-30T00:24:06.355Z,79.30
2018-01-30T00:25:11.161Z,79.60
2018-01-30T00:26:05.854Z,79.80
2018-01-30T00:27:06.485Z,79.70
2018-01-30T00:28:11.273Z,79.80
2018-01-30T00:29:05.985Z,79.80
2018-01-30T00:30:09.231Z,80.10
2018-01-30T00:31:08.453Z,80.10
2018-01-30T00:32:09.616Z,80.10
2018-01-30T00:33:06.070Z,80.20
2018-01-30T00:34:05.901Z,80.20
2018-01-30T00:35:05.516Z,80.10
2018-01-30T00:36:06.594Z,80.00
2018-01-30T00:37:05.649Z,80.00
2018-01-30T00:38:06.214Z,80.00
2018-01-30T00:39:06.369Z,80.00
2018-01-30T00:40:06.983Z,80.00
2018-01-30T00:41:05.773Z,79.90
2018-01-30T00:42:05.649Z,79.90
2018-01-30T00:43:06.344Z,79.80
2018-01-30T00:44:05.477Z,79.70
2018-01-30T00:45:11.614Z,79.10
2018-01-30T00:46:06.358Z,79.10
2018-01-30T00:47:05.872Z,79.10
2018-01-30T00:48:08.875Z,79.00
2018-01-30T00:49:05.978Z,79.00
2018-01-30T00:50:09.225Z,78.70
2018-01-30T00:51:05.838Z,78.70
2018-01-30T00:52:11.183Z,77.90
2018-01-30T00:53:06.069Z,78.00
2018-01-30T00:54:06.527Z,77.90
2018-01-30T00:55:11.654Z,78.00
2018-01-30T00:56:07.420Z,78.00
2018-01-30T00:57:11.185Z,78.20
2018-01-30T00:58:06.945Z,78.20
2018-01-30T00:59:08.780Z,78.00
2018-01-30T01:00:09.259Z,77.70
2018-01-30T01:01:05.666Z,77.70
2018-01-30T01:02:05.955Z,77.70
2018-01-30T01:03:06.410Z,77.30
2018-01-30T01:04:11.207Z,77.20
2018-01-30T01:05:05.861Z,77.20
2018-01-30T01:06:11.542Z,77.10
2018-01-30T01:07:06.033Z,76.40
2018-01-30T01:08:11.545Z,75.90
2018-01-30T01:09:06.211Z,75.80
2018-01-30T01:10:06.255Z,75.40
2018-01-30T01:11:11.134Z,75.40
2018-01-30T01:12:09.221Z,74.70
2018-01-30T01:13:06.221Z,74.60
2018-01-30T01:14:05.795Z,73.70
2018-01-30T01:15:11.669Z,73.60
2018-01-30T01:16:14.087Z,73.20
2018-01-30T01:17:08.518Z,73.00
2018-01-30T01:18:06.340Z,73.00
2018-01-30T01:19:11.274Z,73.00
2018-01-30T01:20:06.192Z,73.00
2018-01-30T01:21:05.889Z,72.70
2018-01-30T01:22:05.552Z,72.70
2018-01-30T01:23:11.195Z,72.70
2018-01-30T01:24:06.037Z,72.60
2018-01-30T01:25:09.295Z,72.70
2018-01-30T01:26:06.185Z,72.70
2018-01-30T01:27:06.037Z,73.00
2018-01-30T01:28:11.572Z,73.00
2018-01-30T01:29:06.320Z,72.80
2018-01-30T01:30:05.990Z,73.00
2018-01-30T01:31:05.774Z,73.10
2018-01-30T01:32:06.696Z,72.90
2018-01-30T01:33:11.667Z,72.90
2018-01-30T01:34:11.863Z,73.00
2018-01-30T01:35:06.412Z,73.00
2018-01-30T01:36:06.474Z,73.00
2018-01-30T01:37:05.695Z,73.20
2018-01-30T01:38:09.689Z,73.50
2018-01-30T01:39:06.201Z,73.40
2018-01-30T01:40:08.606Z,73.60
2018-01-30T01:41:06.266Z,73.60
2018-01-30T01:42:05.802Z,73.60
2018-01-30T01:43:05.603Z,73.80
2018-01-30T01:44:06.200Z,73.90
2018-01-30T01:45:06.013Z,73.90
2018-01-30T01:46:06.252Z,73.90
2018-01-30T01:47:08.813Z,74.10
2018-01-30T01:48:13.292Z,74.10
2018-01-30T01:49:06.050Z,74.20
2018-01-30T01:50:06.644Z,74.20
2018-01-30T01:51:09.312Z,74.40
2018-01-30T01:52:06.380Z,74.40
2018-01-30T01:53:10.472Z,74.60
2018-01-30T01:54:10.756Z,74.60
2018-01-30T01:55:06.119Z,74.60
2018-01-30T01:56:06.291Z,74.70
2018-01-30T01:57:11.645Z,74.50
2018-01-30T01:58:06.390Z,74.60
2018-01-30T01:59:08.658Z,74.50
2018-01-30T02:00:06.454Z,74.50
2018-01-30T02:01:06.348Z,74.50
2018-01-30T02:02:09.018Z,74.40
2018-01-30T02:03:05.729Z,74.40
2018-01-30T02:04:08.944Z,74.20
2018-01-30T02:05:05.468Z,74.30
2018-01-30T02:06:05.733Z,74.20
2018-01-30T02:07:05.898Z,74.30
2018-01-30T02:08:05.633Z,74.40
2018-01-30T02:09:06.312Z,74.40
2018-01-30T02:10:06.223Z,74.30
2018-01-30T02:11:05.927Z,74.10
2018-01-30T02:12:10.853Z,73.70
2018-01-30T02:13:11.725Z,73.80
2018-01-30T02:14:10.492Z,74.00
2018-01-30T02:15:11.627Z,74.00
2018-01-30T02:16:06.309Z,74.10
2018-01-30T02:17:06.265Z,74.20
2018-01-30T02:18:05.789Z,74.30
2018-01-30T02:19:06.446Z,74.30
2018-01-30T02:20:13.740Z,74.40
2018-01-30T02:21:06.264Z,74.50
2018-01-30T02:22:06.355Z,74.50
2018-01-30T02:23:11.538Z,74.70
2018-01-30T02:24:06.098Z,74.80
2018-01-30T02:25:11.252Z,74.90
2018-01-30T02:26:05.762Z,74.90
2018-01-30T02:27:10.853Z,74.90
2018-01-30T02:28:10.083Z,75.00
2018-01-30T02:29:08.977Z,75.20
2018-01-30T02:30:05.620Z,75.10
2018-01-30T02:31:06.283Z,75.00
2018-01-30T02:32:10.885Z,75.10
2018-01-30T02:33:11.626Z,75.20
2018-01-30T02:34:10.523Z,75.30
2018-01-30T02:35:10.114Z,75.40
2018-01-30T02:36:13.187Z,75.50
2018-01-30T02:37:05.645Z,75.50
2018-01-30T02:38:11.611Z,75.70
2018-01-30T02:39:09.369Z,75.80
2018-01-30T02:40:11.248Z,75.80
2018-01-30T02:41:06.173Z,76.00
2018-01-30T02:42:11.268Z,76.20
2018-01-30T02:43:06.072Z,76.20
2018-01-30T02:44:09.601Z,76.30
2018-01-30T02:45:06.227Z,76.30
2018-01-30T02:46:05.698Z,76.30
2018-01-30T02:47:06.370Z,76.40
2018-01-30T02:48:09.391Z,76.30
2018-01-30T02:49:06.045Z,76.40
2018-01-30T02:50:11.264Z,76.40
2018-01-30T02:51:05.739Z,76.40
2018-01-30T02:52:09.248Z,76.50
2018-01-30T02:53:05.898Z,76.50
2018-01-30T02:54:13.267Z,76.40
2018-01-30T02:55:05.642Z,76.40
2018-01-30T02:56:05.770Z,76.30
2018-01-30T02:57:10.874Z,76.30
2018-01-30T02:58:12.014Z,76.40
2018-01-30T02:59:08.993Z,76.30
2018-01-30T03:00:10.895Z,76.10
2018-01-30T03:01:05.965Z,76.10
2018-01-30T03:02:08.903Z,76.00
2018-01-30T03:03:10.071Z,75.80
2018-01-30T03:04:09.370Z,75.80
2018-01-30T03:05:09.061Z,75.80
2018-01-30T03:06:08.890Z,75.90
2018-01-30T03:07:06.459Z,75.80
2018-01-30T03:08:06.350Z,75.70
2018-01-30T03:09:13.287Z,75.60
2018-01-30T03:10:06.882Z,75.60
2018-01-30T03:11:05.535Z,75.60
2018-01-30T03:12:08.432Z,75.60
2018-01-30T03:13:06.016Z,75.60
2018-01-30T03:14:11.705Z,75.80
2018-01-30T03:15:09.300Z,75.70
2018-01-30T03:16:05.960Z,75.70
2018-01-30T03:17:11.292Z,75.60
2018-01-30T03:18:05.811Z,75.70
2018-01-30T03:19:06.052Z,75.70
2018-01-30T03:20:11.195Z,75.80
2018-01-30T03:21:05.615Z,75.80
2018-01-30T03:22:09.001Z,75.80
2018-01-30T03:23:09.383Z,75.80
2018-01-30T03:24:11.306Z,75.80
2018-01-30T03:25:11.326Z,75.80
2018-01-30T03:26:10.090Z,75.80
2018-01-30T03:27:11.317Z,75.90
2018-01-30T03:28:09.024Z,75.90
2018-01-30T03:29:08.214Z,76.00
2018-01-30T03:30:05.868Z,76.00
2018-01-30T03:31:05.627Z,76.00
2018-01-30T03:32:05.698Z,76.00
2018-01-30T03:33:05.832Z,76.00
2018-01-30T03:34:06.313Z,76.10
2018-01-30T03:35:06.040Z,76.10
2018-01-30T03:36:09.300Z,76.10
2018-01-30T03:37:05.808Z,76.10
2018-01-30T03:38:06.328Z,76.20
2018-01-30T03:39:11.647Z,76.20
2018-01-30T03:40:09.029Z,76.20
2018-01-30T03:41:06.383Z,76.20
2018-01-30T03:42:05.804Z,76.20
2018-01-30T03:43:13.470Z,76.30
2018-01-30T03:44:05.942Z,76.30
2018-01-30T03:45:08.256Z,76.20
2018-01-30T03:46:05.500Z,76.20
2018-01-30T03:47:10.530Z,76.10
2018-01-30T03:48:09.395Z,76.10
2018-01-30T03:49:06.113Z,76.10
2018-01-30T03:50:08.528Z,76.10
2018-01-30T03:51:05.985Z,76.10
2018-01-30T03:52:11.714Z,76.10
2018-01-30T03:53:06.370Z,76.10
2018-01-30T03:54:06.092Z,76.00
2018-01-30T03:55:06.071Z,76.00
2018-01-30T03:56:10.975Z,76.10
2018-01-30T03:57:05.494Z,76.10
2018-01-30T03:58:05.601Z,76.10
2018-01-30T03:59:09.041Z,76.00
2018-01-30T04:00:10.969Z,76.10
2018-01-30T04:01:05.580Z,76.10
2018-01-30T04:02:11.755Z,76.10
2018-01-30T04:03:09.416Z,76.00
2018-01-30T04:04:06.073Z,76.10
2018-01-30T04:05:05.930Z,76.10
2018-01-30T04:06:05.593Z,76.00
2018-01-30T04:07:09.062Z,76.00
2018-01-30T04:08:09.483Z,75.80
2018-01-30T04:09:06.321Z,75.80
2018-01-30T04:10:06.986Z,75.80
2018-01-30T04:11:09.062Z,75.90
2018-01-30T04:12:05.745Z,75.90
2018-01-30T04:13:11.690Z,75.90
2018-01-30T04:14:06.196Z,75.90
2018-01-30T04:15:05.943Z,76.00
2018-01-30T04:16:06.609Z,75.90
2018-01-30T04:17:11.296Z,75.80
2018-01-30T04:18:06.333Z,75.70
2018-01-30T04:19:05.842Z,75.60
2018-01-30T04:20:05.544Z,75.70
2018-01-30T04:21:05.599Z,75.70
2018-01-30T04:22:06.587Z,75.70
2018-01-30T04:23:05.876Z,75.70
2018-01-30T04:24:05.517Z,75.80
2018-01-30T04:25:09.050Z,75.80
2018-01-30T04:26:05.518Z,75.80
2018-01-30T04:27:06.705Z,75.90
2018-01-30T04:28:06.677Z,75.90
2018-01-30T04:29:06.186Z,75.90
2018-01-30T04:30:11.351Z,76.00
2018-01-30T04:31:09.459Z,76.00
2018-01-30T04:32:06.276Z,76.00
2018-01-30T04:33:11.310Z,76.10
2018-01-30T04:34:11.084Z,76.00
2018-01-30T04:35:05.695Z,76.00
2018-01-30T04:36:12.079Z,76.20
2018-01-30T04:37:05.800Z,76.10
2018-01-30T04:38:09.452Z,76.10
2018-01-30T04:39:05.968Z,76.10
2018-01-30T04:40:08.622Z,76.20
2018-01-30T04:41:09.432Z,76.20
2018-01-30T04:42:11.367Z,76.20
2018-01-30T04:43:08.660Z,76.30
2018-01-30T04:44:05.705Z,76.30
2018-01-30T04:45:12.029Z,76.30
2018-01-30T04:46:05.669Z,76.30
2018-01-30T04:47:05.886Z,76.40
2018-01-30T04:48:06.001Z,76.50
2018-01-30T04:49:09.203Z,76.50
2018-01-30T04:50:06.191Z,0.80
2018-01-30T04:51:11.001Z,76.60
2018-01-30T04:52:09.071Z,76.70
2018-01-30T04:53:08.584Z,76.70
2018-01-30T04:54:09.450Z,76.70
2018-01-30T04:55:13.478Z,76.60
2018-01-30T04:56:09.460Z,76.60
2018-01-30T04:57:05.949Z,76.60
2018-01-30T04:58:05.742Z,76.60
2018-01-30T04:59:09.074Z,76.50
2018-01-30T05:00:11.014Z,76.50
2018-01-30T05:01:15.613Z,76.60
2018-01-30T05:02:06.373Z,76.60
2018-01-30T05:03:06.047Z,76.60
2018-01-30T05:04:06.145Z,76.60
2018-01-30T05:05:05.519Z,76.70
2018-01-30T05:06:05.951Z,76.70
2018-01-30T05:07:06.633Z,76.60
2018-01-30T05:08:09.850Z,76.70
2018-01-30T05:09:14.818Z,76.70
2018-01-30T05:10:06.333Z,76.70
2018-01-30T05:11:09.776Z,76.70
2018-01-30T05:12:06.481Z,76.70
2018-01-30T05:13:09.752Z,76.70
2018-01-30T05:14:09.108Z,76.70
2018-01-30T05:15:08.292Z,76.70
2018-01-30T05:16:05.994Z,76.70
2018-01-30T05:17:05.825Z,76.70
2018-01-30T05:18:05.673Z,76.60
2018-01-30T05:19:06.291Z,76.80
2018-01-30T05:20:11.746Z,76.80
2018-01-30T05:21:06.320Z,76.70
2018-01-30T05:22:05.913Z,76.70
2018-01-30T05:23:05.852Z,76.80
2018-01-30T05:24:13.252Z,76.80
2018-01-30T05:25:08.995Z,76.80
2018-01-30T05:26:06.074Z,76.80
2018-01-30T05:27:05.655Z,76.80
2018-01-30T05:28:06.356Z,76.80
2018-01-30T05:29:05.653Z,76.80
2018-01-30T05:30:06.095Z,76.90
2018-01-30T05:31:06.364Z,77.00
2018-01-30T05:32:06.450Z,77.00
2018-01-30T05:33:06.247Z,76.90
2018-01-30T05:34:11.049Z,77.00
2018-01-30T05:35:05.752Z,77.00
2018-01-30T05:36:06.276Z,77.00
2018-01-30T05:37:09.956Z,77.10
2018-01-30T05:38:06.409Z,77.10
2018-01-30T05:39:06.140Z,77.20
2018-01-30T05:40:06.184Z,77.20
2018-01-30T05:41:05.951Z,77.40
2018-01-30T05:42:06.057Z,77.40
2018-01-30T05:43:06.131Z,77.50
2018-01-30T05:44:09.859Z,77.80
2018-01-30T05:45:05.653Z,77.80
2018-01-30T05:46:11.843Z,78.20
2018-01-30T05:47:11.772Z,78.20
2018-01-30T05:48:06.381Z,78.20
2018-01-30T05:49:06.039Z,78.20
2018-01-30T05:50:05.916Z,78.10
2018-01-30T05:51:05.549Z,78.20
2018-01-30T05:52:11.779Z,78.00
2018-01-30T05:53:06.219Z,78.00
2018-01-30T05:54:11.429Z,78.00
2018-01-30T05:55:09.500Z,77.90
2018-01-30T05:56:09.493Z,77.90
2018-01-30T05:57:09.031Z,77.80
2018-01-30T05:58:10.944Z,77.60
2018-01-30T05:59:05.453Z,77.60
2018-01-30T06:00:13.378Z,77.50
2018-01-30T06:01:05.870Z,77.50
2018-01-30T06:02:06.027Z,77.60
2018-01-30T06:03:09.914Z,77.30
2018-01-30T06:04:06.421Z,77.20
2018-01-30T06:05:08.453Z,77.10
2018-01-30T06:06:06.154Z,77.20
2018-01-30T06:07:05.750Z,77.10
2018-01-30T06:08:11.076Z,77.00
2018-01-30T06:09:05.714Z,77.00
2018-01-30T06:10:06.365Z,76.90
2018-01-30T06:11:06.033Z,76.80
2018-01-30T06:12:09.168Z,76.50
2018-01-30T06:13:10.955Z,76.50
2018-01-30T06:14:08.218Z,76.30
2018-01-30T06:15:08.466Z,76.30
2018-01-30T06:16:09.891Z,76.10
2018-01-30T06:17:09.929Z,76.00
2018-01-30T06:18:06.390Z,76.00
2018-01-30T06:19:09.037Z,76.00
2018-01-30T06:20:05.563Z,76.00
2018-01-30T06:21:06.262Z,76.00
2018-01-30T06:22:06.125Z,76.00
2018-01-30T06:23:11.416Z,75.80
2018-01-30T06:24:06.124Z,75.80
2018-01-30T06:25:05.600Z,75.90
2018-01-30T06:26:06.013Z,75.90
2018-01-30T06:27:06.723Z,75.80
2018-01-30T06:28:09.165Z,75.60
2018-01-30T06:29:11.410Z,75.60
2018-01-30T06:30:11.132Z,75.50
2018-01-30T06:31:05.557Z,75.50
2018-01-30T06:32:09.544Z,75.50
2018-01-30T06:33:09.169Z,75.50
2018-01-30T06:34:05.633Z,75.50
2018-01-30T06:35:11.803Z,75.40
2018-01-30T06:36:11.822Z,75.30
2018-01-30T06:37:06.457Z,75.20
2018-01-30T06:38:11.463Z,74.90
2018-01-30T06:39:09.189Z,74.70
2018-01-30T06:40:05.707Z,74.70
2018-01-30T06:41:06.351Z,74.60
2018-01-30T06:42:06.250Z,74.60
2018-01-30T06:43:11.434Z,74.70
2018-01-30T06:44:06.121Z,74.60
2018-01-30T06:45:06.726Z,74.80
2018-01-30T06:46:06.435Z,74.80
2018-01-30T06:47:05.962Z,74.80
2018-01-30T06:48:05.729Z,74.70
2018-01-30T06:49:11.565Z,74.80
2018-01-30T06:50:06.238Z,74.80
2018-01-30T06:51:05.776Z,74.80
2018-01-30T06:52:05.644Z,74.70
2018-01-30T06:53:11.474Z,74.70
2018-01-30T06:54:05.927Z,74.70
2018-01-30T06:55:06.441Z,74.70
2018-01-30T06:56:05.971Z,74.70
2018-01-30T06:57:08.798Z,74.90
2018-01-30T06:58:06.538Z,74.80
2018-01-30T06:59:05.470Z,74.90
2018-01-30T07:00:06.087Z,74.90
2018-01-30T07:01:05.607Z,75.00
2018-01-30T07:02:06.234Z,74.90
2018-01-30T07:03:08.286Z,74.70
2018-01-30T07:04:06.392Z,74.70
2018-01-30T07:05:11.095Z,74.70
2018-01-30T07:06:05.609Z,74.70
2018-01-30T07:07:05.775Z,74.70
2018-01-30T07:08:12.574Z,74.80
2018-01-30T07:09:06.055Z,74.80
2018-01-30T07:10:13.652Z,74.70
2018-01-30T07:11:11.450Z,74.70
2018-01-30T07:12:05.809Z,74.70
2018-01-30T07:13:05.825Z,74.80
2018-01-30T07:14:06.460Z,74.70
2018-01-30T07:15:06.030Z,74.60
2018-01-30T07:16:09.199Z,74.70
2018-01-30T07:17:11.045Z,74.70
2018-01-30T07:18:05.764Z,74.70
2018-01-30T07:19:14.365Z,74.60
2018-01-30T07:20:05.742Z,74.50
2018-01-30T07:21:05.599Z,74.60
2018-01-30T07:22:05.804Z,74.70
2018-01-30T07:23:05.808Z,74.70
2018-01-30T07:24:05.913Z,74.60
2018-01-30T07:25:11.511Z,74.60
2018-01-30T07:26:13.622Z,74.50
2018-01-30T07:27:05.937Z,74.50
2018-01-30T07:28:06.545Z,74.60
2018-01-30T07:29:06.728Z,74.60
2018-01-30T07:30:08.655Z,74.50
2018-01-30T07:31:06.277Z,74.50
2018-01-30T07:32:11.860Z,74.50
2018-01-30T07:33:09.245Z,74.50
2018-01-30T07:34:05.767Z,74.50
2018-01-30T07:35:06.400Z,74.70
2018-01-30T07:36:09.951Z,74.60
2018-01-30T07:37:11.488Z,74.60
2018-01-30T07:38:08.841Z,74.60
2018-01-30T07:39:06.314Z,74.60
2018-01-30T07:40:05.918Z,74.80
2018-01-30T07:41:15.651Z,74.90
2018-01-30T07:42:06.095Z,74.80
2018-01-30T07:43:05.756Z,74.80
2018-01-30T07:44:05.993Z,74.80
2018-01-30T07:45:06.008Z,74.90
2018-01-30T07:46:11.161Z,74.80
2018-01-30T07:47:05.816Z,74.80
2018-01-30T07:48:09.728Z,74.90
2018-01-30T07:49:06.407Z,74.90
2018-01-30T07:50:11.512Z,75.00
2018-01-30T07:51:05.923Z,75.00
2018-01-30T07:52:06.408Z,75.00
2018-01-30T07:53:09.604Z,75.00
2018-01-30T07:54:06.129Z,75.10
2018-01-30T07:55:13.402Z,75.10
2018-01-30T07:56:11.138Z,75.20
2018-01-30T07:57:09.235Z,75.20
2018-01-30T07:58:05.673Z,75.20
2018-01-30T07:59:05.787Z,75.10
2018-01-30T08:00:05.839Z,75.10
2018-01-30T08:01:09.904Z,74.80
2018-01-30T08:02:06.982Z,74.80
2018-01-30T08:03:07.356Z,74.90
2018-01-30T08:04:06.051Z,74.90
2018-01-30T08:05:05.776Z,74.80
2018-01-30T08:06:11.185Z,74.50
2018-01-30T08:07:05.854Z,74.20
2018-01-30T08:08:05.746Z,74.10
2018-01-30T08:09:05.716Z,74.10
2018-01-30T08:10:06.018Z,73.90
2018-01-30T08:11:05.768Z,74.00
2018-01-30T08:12:09.728Z,74.30
2018-01-30T08:13:06.336Z,74.30
2018-01-30T08:14:11.163Z,73.90
2018-01-30T08:15:09.258Z,73.90
2018-01-30T08:16:05.770Z,73.90
2018-01-30T08:17:10.764Z,73.80
2018-01-30T08:18:05.806Z,73.80
2018-01-30T08:19:05.539Z,73.60
2018-01-30T08:20:08.505Z,73.60
2018-01-30T08:21:10.028Z,73.60
2018-01-30T08:22:05.693Z,73.60
2018-01-30T08:23:05.589Z,73.60
2018-01-30T08:24:11.568Z,73.80
2018-01-30T08:25:11.262Z,73.80
2018-01-30T08:26:05.817Z,73.70
2018-01-30T08:27:11.159Z,73.80
2018-01-30T08:28:05.923Z,73.80
2018-01-30T08:29:06.125Z,73.70
2018-01-30T08:30:06.138Z,73.40
2018-01-30T08:31:05.697Z,73.40
2018-01-30T08:32:05.759Z,73.60
2018-01-30T08:33:06.001Z,73.60
2018-01-30T08:34:11.968Z,73.60
2018-01-30T08:35:15.638Z,73.70
2018-01-30T08:36:11.609Z,73.80
2018-01-30T08:37:05.857Z,73.70
2018-01-30T08:38:06.017Z,73.60
2018-01-30T08:39:09.189Z,73.80
2018-01-30T08:40:06.129Z,73.80
2018-01-30T08:41:11.954Z,73.90
2018-01-30T08:42:09.051Z,73.90
2018-01-30T08:43:05.706Z,73.90
2018-01-30T08:44:11.474Z,73.90
2018-01-30T08:45:05.992Z,73.90
2018-01-30T08:46:11.593Z,73.80
2018-01-30T08:47:09.662Z,73.80
2018-01-30T08:48:09.685Z,73.80
2018-01-30T08:49:07.187Z,73.80
2018-01-30T08:50:11.620Z,73.80
2018-01-30T08:51:09.656Z,73.90
2018-01-30T08:52:06.371Z,73.80
2018-01-30T08:53:11.216Z,73.90
2018-01-30T08:54:05.698Z,73.90
2018-01-30T08:55:05.584Z,73.90
2018-01-30T08:56:08.900Z,73.80
2018-01-30T08:57:06.341Z,73.80
2018-01-30T08:58:11.205Z,73.80
2018-01-30T08:59:05.846Z,73.80
2018-01-30T09:00:09.281Z,74.10
2018-01-30T09:01:09.251Z,74.00
2018-01-30T09:02:05.671Z,74.10
2018-01-30T09:03:10.901Z,74.00
2018-01-30T09:04:05.723Z,74.10
2018-01-30T09:05:06.118Z,74.20
2018-01-30T09:06:06.410Z,74.20
2018-01-30T09:07:09.681Z,74.20
2018-01-30T09:08:06.267Z,74.20
2018-01-30T09:09:05.566Z,74.10
2018-01-30T09:10:06.470Z,74.10
2018-01-30T09:11:06.266Z,74.10
2018-01-30T09:12:06.221Z,74.10
2018-01-30T09:13:15.928Z,73.80
2018-01-30T09:14:06.617Z,73.80
2018-01-30T09:15:09.670Z,73.80
2018-01-30T09:16:06.290Z,73.80
2018-01-30T09:17:06.159Z,73.60
2018-01-30T09:18:05.815Z,73.50
2018-01-30T09:19:11.655Z,73.60
2018-01-30T09:20:06.506Z,73.60
2018-01-30T09:21:08.824Z,73.60
2018-01-30T09:22:06.419Z,73.60
2018-01-30T09:23:06.004Z,73.60
2018-01-30T09:24:10.879Z,73.60
2018-01-30T09:25:10.854Z,73.40
2018-01-30T09:26:08.462Z,73.40
2018-01-30T09:27:08.921Z,73.00
2018-01-30T09:28:10.141Z,73.00
2018-01-30T09:29:05.716Z,73.00
2018-01-30T09:30:11.255Z,72.60
2018-01-30T09:31:05.724Z,72.50
2018-01-30T09:32:05.783Z,72.50
2018-01-30T09:33:09.254Z,72.50
2018-01-30T09:34:06.509Z,72.40
2018-01-30T09:35:09.990Z,72.10
2018-01-30T09:36:05.678Z,72.10
2018-01-30T09:37:06.374Z,72.20
2018-01-30T09:38:06.086Z,71.80
2018-01-30T09:39:05.722Z,71.40
2018-01-30T09:40:09.048Z,70.90
2018-01-30T09:41:11.246Z,70.70
2018-01-30T09:42:06.608Z,70.50
2018-01-30T09:43:10.103Z,69.70
2018-01-30T09:44:08.874Z,69.10
2018-01-30T09:45:06.380Z,69.10
2018-01-30T09:46:11.205Z,68.30
2018-01-30T09:47:11.258Z,68.00
2018-01-30T09:48:09.331Z,68.00
2018-01-30T09:49:05.723Z,68.00
2018-01-30T09:50:05.850Z,67.90
2018-01-30T09:51:08.268Z,67.50
2018-01-30T09:52:06.048Z,67.50
2018-01-30T09:53:08.016Z,67.20
2018-01-30T09:54:05.818Z,67.10
2018-01-30T09:55:09.714Z,67.10
2018-01-30T09:56:09.398Z,67.20
2018-01-30T09:57:05.792Z,67.20
2018-01-30T09:58:11.245Z,66.50
2018-01-30T09:59:13.441Z,66.20
2018-01-30T10:00:06.128Z,66.30
2018-01-30T10:01:11.760Z,66.10
2018-01-30T10:02:06.381Z,66.10
2018-01-30T10:03:09.344Z,65.80
2018-01-30T10:04:06.119Z,65.80
2018-01-30T10:05:05.677Z,65.60
2018-01-30T10:06:09.341Z,65.30
2018-01-30T10:07:09.364Z,64.60
2018-01-30T10:08:05.925Z,64.60
2018-01-30T10:09:05.806Z,64.40
2018-01-30T10:10:07.973Z,64.90
2018-01-30T10:11:06.651Z,64.90
2018-01-30T10:12:11.653Z,65.00
2018-01-30T10:13:11.678Z,65.00
2018-01-30T10:14:09.374Z,65.30
2018-01-30T10:15:06.094Z,65.30
2018-01-30T10:16:05.582Z,65.40
2018-01-30T10:17:05.728Z,65.30
2018-01-30T10:18:05.900Z,64.70
2018-01-30T10:19:05.814Z,63.60
2018-01-30T10:20:06.558Z,64.10
2018-01-30T10:21:09.753Z,64.00
2018-01-30T10:22:11.690Z,64.10
2018-01-30T10:23:09.752Z,64.00
2018-01-30T10:24:06.469Z,64.10
2018-01-30T10:25:06.009Z,64.10
2018-01-30T10:26:05.739Z,64.20
2018-01-30T10:27:05.773Z,64.40
2018-01-30T10:28:06.224Z,64.80
2018-01-30T10:29:10.140Z,64.90
2018-01-30T10:30:11.416Z,65.00
2018-01-30T10:31:05.911Z,65.10
2018-01-30T10:32:11.320Z,65.00
2018-01-30T10:33:05.940Z,65.00
2018-01-30T10:34:06.397Z,64.80
2018-01-30T10:35:09.011Z,64.80
2018-01-30T10:36:13.694Z,64.90
2018-01-30T10:37:11.706Z,65.00
2018-01-30T10:38:06.216Z,65.10
2018-01-30T10:39:10.550Z,65.10
2018-01-30T10:40:08.226Z,64.80
2018-01-30T10:41:05.748Z,64.80
2018-01-30T10:42:09.786Z,64.80
2018-01-30T10:43:10.047Z,64.90
2018-01-30T10:44:05.617Z,64.80
2018-01-30T10:45:05.845Z,65.00
2018-01-30T10:46:05.657Z,64.80
2018-01-30T10:47:06.660Z,64.60
2018-01-30T10:48:09.774Z,64.30
2018-01-30T10:49:06.221Z,64.30
2018-01-30T10:50:06.479Z,64.40
2018-01-30T10:51:06.303Z,64.10
2018-01-30T10:52:09.408Z,64.20
2018-01-30T10:53:06.325Z,64.20
2018-01-30T10:54:05.846Z,64.00
2018-01-30T10:55:08.321Z,64.10
2018-01-30T10:56:06.009Z,64.10
2018-01-30T10:57:06.189Z,64.10
2018-01-30T10:58:06.426Z,63.80
2018-01-30T10:59:10.895Z,63.20
2018-01-30T11:00:11.647Z,63.30
2018-01-30T11:01:11.297Z,63.20
2018-01-30T11:02:08.819Z,63.50
2018-01-30T11:03:06.460Z,63.50
2018-01-30T11:04:12.031Z,63.20
2018-01-30T11:05:05.598Z,63.20
2018-01-30T11:06:06.165Z,63.00
2018-01-30T11:07:10.935Z,63.00
2018-01-30T11:08:10.948Z,63.10
2018-01-30T11:09:06.422Z,63.20
2018-01-30T11:10:06.176Z,62.60
2018-01-30T11:11:13.549Z,61.40
2018-01-30T11:12:06.413Z,61.30
2018-01-30T11:13:05.914Z,61.00
2018-01-30T11:14:13.336Z,60.70
2018-01-30T11:15:11.252Z,60.10
2018-01-30T11:16:05.856Z,60.10
2018-01-30T11:17:10.938Z,59.60
2018-01-30T11:18:06.404Z,59.70
2018-01-30T11:19:08.640Z,59.10
2018-01-30T11:20:05.987Z,59.10
2018-01-30T11:21:10.997Z,59.20
2018-01-30T11:22:09.478Z,59.40
2018-01-30T11:23:06.070Z,59.50
2018-01-30T11:24:05.523Z,59.70
2018-01-30T11:25:05.898Z,59.90
2018-01-30T11:26:06.431Z,60.10
2018-01-30T11:27:05.994Z,60.20
2018-01-30T11:28:06.146Z,60.40
2018-01-30T11:29:09.547Z,59.70
2018-01-30T11:30:11.742Z,59.70
2018-01-30T11:31:05.761Z,59.70
2018-01-30T11:32:05.677Z,59.50
2018-01-30T11:33:06.121Z,59.30
2018-01-30T11:34:05.762Z,58.60
2018-01-30T11:35:06.286Z,58.70
2018-01-30T11:36:06.042Z,58.10
2018-01-30T11:37:05.556Z,58.40
2018-01-30T11:38:06.219Z,57.90
2018-01-30T11:39:11.356Z,57.70
2018-01-30T11:40:08.564Z,57.40
2018-01-30T11:41:06.092Z,57.40
2018-01-30T11:42:09.020Z,57.00
2018-01-30T11:43:05.805Z,57.00
2018-01-30T11:44:05.599Z,56.70
2018-01-30T11:45:06.361Z,56.60
2018-01-30T11:46:09.808Z,57.00
2018-01-30T11:47:10.123Z,57.10
2018-01-30T11:48:05.780Z,57.00
2018-01-30T11:49:06.002Z,56.90
2018-01-30T11:50:06.734Z,56.60
2018-01-30T11:51:09.386Z,55.80
2018-01-30T11:52:06.063Z,55.80
2018-01-30T11:53:11.278Z,55.90
2018-01-30T11:54:10.975Z,55.20
2018-01-30T11:55:05.841Z,54.90
2018-01-30T11:56:05.972Z,54.40
2018-01-30T11:57:05.652Z,54.30
2018-01-30T11:58:05.714Z,54.20
2018-01-30T11:59:06.424Z,54.40
2018-01-30T12:00:08.039Z,54.10
2018-01-30T12:01:09.463Z,53.60
2018-01-30T12:02:05.950Z,53.60
2018-01-30T12:03:05.833Z,53.70
2018-01-30T12:04:05.438Z,53.60
2018-01-30T12:05:10.166Z,52.70
2018-01-30T12:06:05.859Z,52.70
2018-01-30T12:07:09.733Z,52.30
2018-01-30T12:08:06.386Z,52.30
2018-01-30T12:09:11.287Z,52.40
2018-01-30T12:10:05.833Z,51.70
2018-01-30T12:11:08.203Z,51.30
2018-01-30T12:12:08.574Z,51.40
2018-01-30T12:13:06.311Z,51.40
2018-01-30T12:14:06.187Z,51.70
2018-01-30T12:15:09.361Z,51.90
2018-01-30T12:16:05.924Z,51.90
2018-01-30T12:17:05.555Z,52.00
2018-01-30T12:18:05.540Z,52.10
2018-01-30T12:19:11.750Z,51.90
2018-01-30T12:20:06.263Z,51.90
2018-01-30T12:21:06.219Z,51.80
2018-01-30T12:22:11.732Z,52.00
2018-01-30T12:23:06.528Z,51.80
2018-01-30T12:24:05.816Z,51.40
2018-01-30T12:25:05.561Z,51.00
2018-01-30T12:26:05.797Z,51.00
2018-01-30T12:27:10.147Z,51.40
2018-01-30T12:28:11.367Z,51.40
2018-01-30T12:29:06.432Z,51.30
2018-01-30T12:30:06.340Z,51.20
2018-01-30T12:31:11.374Z,51.10
2018-01-30T12:32:06.066Z,51.10
2018-01-30T12:33:11.805Z,51.40
2018-01-30T12:34:12.482Z,51.40
2018-01-30T12:35:05.956Z,51.40
2018-01-30T12:36:05.733Z,51.30
2018-01-30T12:37:05.556Z,51.40
2018-01-30T12:38:06.085Z,51.20
2018-01-30T12:39:05.954Z,50.80
2018-01-30T12:40:05.842Z,50.80
2018-01-30T12:41:05.626Z,51.00
2018-01-30T12:42:06.305Z,51.10
2018-01-30T12:43:07.507Z,51.30
2018-01-30T12:44:11.419Z,51.00
2018-01-30T12:45:06.107Z,51.00
2018-01-30T12:46:05.860Z,50.90
2018-01-30T12:47:05.929Z,50.90
2018-01-30T12:48:05.431Z,50.80
2018-01-30T12:49:09.264Z,50.90
2018-01-30T12:50:08.758Z,51.00
2018-01-30T12:51:06.331Z,51.00
2018-01-30T12:52:06.538Z,51.00